Columbus, IN (47201)

2:47 PM EST on February 14, 2016 (GMT -0500)
Jackson St. | | Change Station
CLOSE
Current Station
Personal Weather Station
Location: Columbus, IN
Elevation: 627 ft
Nearby Weather Stations
Active Advisory: Winter Weather Advisory

Elev 627 ft 39.21 °N, 85.92 °W | Updated 10 seconds ago

Snow
Snow
18.5 °F
Feels Like 9 °F
N
7.0
Wind Variable Wind from East
Gusts 11.0 mph

Today
High -- | Low -- °F
--% Chance of Precip.
Yesterday
High -- | Low -- °F
Precip. -- in
Pressure 30.24 in
Visibility 3.2 miles
Clouds Overcast 1500 ft
Windchill 9 °F
Dew Point 16 °F
Humidity 89%
Rainfall 0.00 in
Snow Depth Not available.
7:37 AM 6:19 PM
Waxing Crescent, 44% visible
METAR KBAK 141845Z 12009KT 13/4SM SNBR OVC015 M07/M08 A3024
Pressure 30.24 in
Visibility 3.2 miles
Clouds Overcast 1500 ft
Windchill 9 °F
Dew Point 16 °F
Humidity 89%
Rainfall 0.00 in
Snow Depth Not available.
7:37 AM 6:19 PM
Waxing Crescent, 44% visible
METAR KBAK 141845Z 12009KT 13/4SM SNBR OVC015 M07/M08 A3024

10-Day Weather Forecast

Almanac

Astronomy

Feb. 14, 2016 Rise Set
Actual Time
Civil Twilight
Nautical Twilight
Astronomical Twilight
Moon
Length of Visible Light
Length of Day
Tomorrow will be .
, % of the Moon is Illuminated

Today's Extremes

State Highs State Lows

Community

WunderPhotos

Upload Photos

1,892,879 photos uploaded!

WunderBlog® & News

Nearby

Air Quality

  Air Quality AQ Index Pollutant
Not available.

Snow Depth

Station Depth Elevation

Earthquake Activity

City Distance Mag. Time & Date
Minimum magnitude displayed is 2.5.

Coastal Water Temperatures

Place Temperature

Stations

Nearby Weather Stations

Station Location Temp. Windchill Dew Point Humidity Wind Precip. Elev Updated Type
                   

Watches & Warnings

Winter Weather Advisory
Issued: 10:19 AM EST Feb. 14, 2016 – National Weather Service

... Winter Weather Advisory remains in effect until midnight EST
tonight...

* timing... heaviest snow is expected from 1 to 7 PM.

* Main impact... snow covered roads and poor travel conditions.
Snow accumulations of 2 to 4 inches are expected with isolated higher
amounts possible.

Precautionary/preparedness actions...

A Winter Weather Advisory for snow means that periods of snow
will cause primarily travel difficulties. Be prepared for snow
covered roads and limited visibilities... and use caution while
driving.